createdAt,value
2022-11-03T00:02:16.644Z,51.18
2022-11-03T00:04:44.542Z,51.53
2022-11-03T00:07:11.978Z,50.98
2022-11-03T00:09:39.376Z,51.03
2022-11-03T00:12:09.805Z,51.28
2022-11-03T00:14:37.634Z,51.09
2022-11-03T00:17:05.399Z,51.53
2022-11-03T00:19:33.639Z,51.65
2022-11-03T00:22:01.873Z,51.52
2022-11-03T00:24:29.795Z,51.80
2022-11-03T00:26:57.277Z,51.38
2022-11-03T00:29:25.542Z,51.38
2022-11-03T00:31:53.551Z,51.29
2022-11-03T00:34:21.250Z,51.90
2022-11-03T00:36:49.456Z,50.95
2022-11-03T00:39:17.317Z,51.20
2022-11-03T00:41:45.279Z,50.98
2022-11-03T00:44:13.795Z,51.00
2022-11-03T00:46:41.430Z,51.67
2022-11-03T00:49:09.328Z,51.27
2022-11-03T00:51:37.592Z,50.75
2022-11-03T00:54:07.792Z,51.27
2022-11-03T00:56:38.339Z,51.17
2022-11-03T00:59:12.016Z,51.07
2022-11-03T01:01:46.832Z,51.13
2022-11-03T01:04:35.823Z,50.67
2022-11-03T01:07:05.849Z,50.87
2022-11-03T01:09:41.791Z,51.10
2022-11-03T01:12:12.797Z,51.51
2022-11-03T01:14:50.225Z,51.49
2022-11-03T01:17:20.449Z,50.94
2022-11-03T01:19:50.301Z,50.78
2022-11-03T01:22:19.036Z,51.02
2022-11-03T01:24:48.024Z,51.32
2022-11-03T01:27:18.800Z,50.67
2022-11-03T01:29:47.545Z,51.04
2022-11-03T01:32:15.762Z,51.34
2022-11-03T01:34:43.729Z,51.56
2022-11-03T01:37:12.267Z,51.09
2022-11-03T01:39:41.759Z,51.32
2022-11-03T01:42:14.866Z,51.40
2022-11-03T01:44:49.490Z,51.59
2022-11-03T01:47:25.989Z,51.58
2022-11-03T01:50:00.211Z,51.32
2022-11-03T01:52:37.475Z,51.23
2022-11-03T01:55:10.976Z,51.43
2022-11-03T01:57:45.809Z,51.19
2022-11-03T02:00:14.481Z,51.10
2022-11-03T02:02:43.499Z,51.17
2022-11-03T02:05:15.732Z,50.99
2022-11-03T02:08:02.524Z,51.38
2022-11-03T02:10:30.892Z,51.64
2022-11-03T02:12:59.453Z,51.22
2022-11-03T02:15:28.422Z,51.87
2022-11-03T02:17:58.448Z,51.41
2022-11-03T02:20:30.448Z,51.05
2022-11-03T02:23:23.162Z,51.09
2022-11-03T02:25:59.736Z,51.58
2022-11-03T02:28:33.123Z,51.40
2022-11-03T02:31:30.801Z,51.58
2022-11-03T02:34:27.438Z,51.90
2022-11-03T02:37:08.903Z,51.39
2022-11-03T02:39:55.353Z,51.79
2022-11-03T02:42:26.372Z,51.65
2022-11-03T02:44:59.140Z,52.09
2022-11-03T02:47:31.516Z,51.77
2022-11-03T02:49:59.871Z,51.76
2022-11-03T02:52:47.730Z,51.97
2022-11-03T02:55:40.279Z,52.48
2022-11-03T02:58:22.594Z,52.11
2022-11-03T03:01:01.488Z,52.73
2022-11-03T03:03:35.397Z,51.84
2022-11-03T03:06:08.506Z,52.19
2022-11-03T03:08:42.981Z,52.14
2022-11-03T03:11:14.354Z,52.29
2022-11-03T03:13:45.058Z,51.93
2022-11-03T03:16:17.718Z,52.17
2022-11-03T03:18:57.024Z,52.15
2022-11-03T03:21:30.003Z,52.01
2022-11-03T03:24:15.726Z,52.88
2022-11-03T03:26:49.969Z,52.60
2022-11-03T03:29:27.491Z,52.31
2022-11-03T03:32:04.397Z,52.74
2022-11-03T03:34:36.051Z,52.49
2022-11-03T03:37:07.626Z,52.48
2022-11-03T03:39:39.150Z,52.41
2022-11-03T03:42:12.941Z,52.70
2022-11-03T03:44:42.951Z,52.82
2022-11-03T03:47:18.375Z,52.74
2022-11-03T03:49:45.972Z,52.49
2022-11-03T03:52:13.802Z,52.49
2022-11-03T03:54:41.742Z,52.62
2022-11-03T03:57:16.595Z,52.71
2022-11-03T03:59:45.554Z,52.76
2022-11-03T04:02:14.366Z,52.59
2022-11-03T04:04:42.034Z,52.65
2022-11-03T04:07:28.653Z,52.99
2022-11-03T04:09:57.839Z,52.96
2022-11-03T04:12:43.914Z,52.84
2022-11-03T04:15:33.391Z,52.86
2022-11-03T04:18:19.460Z,53.25
2022-11-03T04:21:05.765Z,53.37
2022-11-03T04:23:33.576Z,53.49
2022-11-03T04:26:02.011Z,53.18
2022-11-03T04:28:30.592Z,52.78
2022-11-03T04:31:00.146Z,53.65
2022-11-03T04:33:29.959Z,53.68
2022-11-03T04:36:00.857Z,53.04
2022-11-03T04:38:30.627Z,53.66
2022-11-03T04:40:59.946Z,54.26
2022-11-03T04:43:34.678Z,53.73
2022-11-03T04:46:05.639Z,53.71
2022-11-03T04:48:34.658Z,53.73
2022-11-03T04:51:11.716Z,53.85
2022-11-03T04:53:44.783Z,54.03
2022-11-03T04:56:20.145Z,53.91
2022-11-03T04:58:49.071Z,54.02
2022-11-03T05:01:23.947Z,54.05
2022-11-03T05:03:54.587Z,54.50
2022-11-03T05:06:24.279Z,54.24
2022-11-03T05:09:03.416Z,54.45
2022-11-03T05:11:44.090Z,54.74
2022-11-03T05:14:20.300Z,54.30
2022-11-03T05:16:49.101Z,54.15
2022-11-03T05:19:25.661Z,54.01
2022-11-03T05:21:55.298Z,53.86
2022-11-03T05:24:26.244Z,54.50
2022-11-03T05:26:56.344Z,54.17
2022-11-03T05:29:45.728Z,54.03
2022-11-03T05:32:17.040Z,54.36
2022-11-03T05:34:48.493Z,54.09
2022-11-03T05:37:47.837Z,54.41
2022-11-03T05:40:26.370Z,54.53
2022-11-03T05:43:01.208Z,54.18
2022-11-03T05:45:38.380Z,54.38
2022-11-03T05:48:22.871Z,54.30
2022-11-03T05:50:50.248Z,54.15
2022-11-03T05:53:23.692Z,54.25
2022-11-03T05:55:51.269Z,54.21
2022-11-03T05:58:36.355Z,54.85
2022-11-03T06:01:26.728Z,54.40
2022-11-03T06:03:54.262Z,54.02
2022-11-03T06:06:35.332Z,54.34
2022-11-03T06:09:04.402Z,54.30
2022-11-03T06:11:39.965Z,53.84
2022-11-03T06:14:24.663Z,53.95
2022-11-03T06:17:02.270Z,54.10
2022-11-03T06:19:39.400Z,54.03
2022-11-03T06:22:15.668Z,54.83
2022-11-03T06:24:43.900Z,54.12
2022-11-03T06:27:26.921Z,54.02
2022-11-03T06:29:59.766Z,54.49
2022-11-03T06:32:28.631Z,54.06
2022-11-03T06:34:59.277Z,54.35
2022-11-03T06:37:35.374Z,53.99
2022-11-03T06:40:28.041Z,54.93
2022-11-03T06:42:58.802Z,54.41
2022-11-03T06:45:31.170Z,54.57
2022-11-03T06:47:58.437Z,54.58
2022-11-03T06:50:27.374Z,54.46
2022-11-03T06:52:59.371Z,54.73
2022-11-03T06:55:31.772Z,54.28
2022-11-03T06:58:04.951Z,54.53
2022-11-03T07:00:34.648Z,54.65
2022-11-03T07:03:12.875Z,54.47
2022-11-03T07:05:40.592Z,54.01
2022-11-03T07:08:25.547Z,54.10
2022-11-03T07:11:21.104Z,54.56
2022-11-03T07:13:50.521Z,53.90
2022-11-03T07:16:35.693Z,54.24
2022-11-03T07:19:06.471Z,53.92
2022-11-03T07:21:33.445Z,53.85
2022-11-03T07:24:02.441Z,54.18
2022-11-03T07:26:29.575Z,54.48
2022-11-03T07:28:59.380Z,53.91
2022-11-03T07:31:29.500Z,53.90
2022-11-03T07:34:02.216Z,53.82
2022-11-03T07:36:34.966Z,53.86
2022-11-03T07:39:03.273Z,53.60
2022-11-03T07:41:34.570Z,53.88
2022-11-03T07:44:04.869Z,54.10
2022-11-03T07:46:32.122Z,53.74
2022-11-03T07:49:02.989Z,54.00
2022-11-03T07:51:35.324Z,53.49
2022-11-03T07:54:08.651Z,53.42
2022-11-03T07:56:40.056Z,53.21
2022-11-03T07:59:11.672Z,52.97
2022-11-03T08:01:48.206Z,53.17
2022-11-03T08:04:34.132Z,52.90
2022-11-03T08:07:03.797Z,52.87
2022-11-03T08:09:33.322Z,52.81
2022-11-03T08:12:01.082Z,52.54
2022-11-03T08:14:28.284Z,53.15
2022-11-03T08:16:55.498Z,52.50
2022-11-03T08:19:22.605Z,52.98
2022-11-03T08:21:49.742Z,52.44
2022-11-03T08:24:16.870Z,52.72
2022-11-03T08:26:44.081Z,52.17
2022-11-03T08:29:11.240Z,52.05
2022-11-03T08:31:38.494Z,52.12
2022-11-03T08:34:07.624Z,51.84
2022-11-03T08:36:37.825Z,51.67
2022-11-03T08:39:07.762Z,51.27
2022-11-03T08:41:35.612Z,50.46
2022-11-03T08:44:04.599Z,50.00
2022-11-03T08:46:33.067Z,49.33
2022-11-03T08:49:01.010Z,48.82
2022-11-03T08:51:28.735Z,49.12
2022-11-03T08:54:10.015Z,49.13
2022-11-03T08:56:40.267Z,49.04
2022-11-03T08:59:10.344Z,49.35
2022-11-03T09:01:40.534Z,48.92
2022-11-03T09:04:16.289Z,49.66
2022-11-03T09:06:46.622Z,49.96
2022-11-03T09:12:06.069Z,49.25
2022-11-03T09:14:33.279Z,49.32
2022-11-03T09:17:00.457Z,48.56
2022-11-03T09:19:30.776Z,48.23
2022-11-03T09:22:00.647Z,48.15
2022-11-03T09:24:27.961Z,47.56
2022-11-03T09:27:02.111Z,47.45
2022-11-03T09:29:36.312Z,47.44
2022-11-03T09:32:12.922Z,47.22
2022-11-03T09:34:49.210Z,47.70
2022-11-03T09:37:16.826Z,47.99
2022-11-03T09:39:44.475Z,52.86
2022-11-03T09:42:12.980Z,52.25
2022-11-03T09:44:40.395Z,53.18
2022-11-03T09:47:20.121Z,56.34
2022-11-03T09:49:47.240Z,56.40
2022-11-03T09:52:20.550Z,56.83
2022-11-03T09:55:00.291Z,56.37
2022-11-03T09:57:32.957Z,56.53
2022-11-03T10:00:31.862Z,57.23
2022-11-03T10:03:05.587Z,56.97
2022-11-03T10:05:56.737Z,57.64
2022-11-03T10:08:32.933Z,57.24
2022-11-03T10:11:20.456Z,57.85
2022-11-03T10:13:54.040Z,56.66
2022-11-03T10:16:25.509Z,56.00
2022-11-03T10:18:54.225Z,54.93
2022-11-03T10:21:30.503Z,53.67
2022-11-03T10:23:57.940Z,53.51
2022-11-03T10:26:27.653Z,54.32
2022-11-03T10:29:02.545Z,54.95
2022-11-03T10:31:39.313Z,54.33
2022-11-03T10:34:39.688Z,54.35
2022-11-03T10:37:23.102Z,53.49
2022-11-03T10:39:53.018Z,52.85
2022-11-03T10:42:28.154Z,51.59
2022-11-03T10:45:22.130Z,50.97
2022-11-03T10:48:07.173Z,50.44
2022-11-03T10:50:34.601Z,50.63
2022-11-03T10:53:06.565Z,50.24
2022-11-03T10:55:34.386Z,49.96
2022-11-03T10:58:24.856Z,49.67
2022-11-03T11:01:03.042Z,50.94
2022-11-03T11:03:31.036Z,52.25
2022-11-03T11:05:58.513Z,52.12
2022-11-03T11:08:26.077Z,53.29
2022-11-03T11:10:54.652Z,54.27
2022-11-03T11:13:28.891Z,54.84
2022-11-03T11:18:46.432Z,52.88
2022-11-03T11:21:18.029Z,52.62
2022-11-03T11:23:47.467Z,50.50
2022-11-03T11:26:33.896Z,51.76
2022-11-03T11:29:10.184Z,51.81
2022-11-03T11:31:45.167Z,50.68
2022-11-03T11:34:20.581Z,50.05
2022-11-03T11:37:08.001Z,51.51
2022-11-03T11:39:44.983Z,50.64
2022-11-03T11:42:27.932Z,50.80
2022-11-03T11:45:03.650Z,50.11
2022-11-03T11:47:51.182Z,49.36
2022-11-03T11:50:57.434Z,50.42
2022-11-03T11:53:31.779Z,53.11
2022-11-03T11:56:04.700Z,51.67
2022-11-03T11:58:51.237Z,51.56
2022-11-03T12:01:45.600Z,52.14
2022-11-03T12:04:31.543Z,51.38
2022-11-03T12:07:02.748Z,52.21
2022-11-03T12:09:33.837Z,51.51
2022-11-03T12:12:08.533Z,54.01
2022-11-03T12:14:41.790Z,53.57
2022-11-03T12:17:26.081Z,51.91
2022-11-03T12:19:59.303Z,52.09
2022-11-03T12:22:28.241Z,52.28
2022-11-03T12:25:11.079Z,53.53
2022-11-03T12:27:44.091Z,53.45
2022-11-03T12:30:19.462Z,53.37
2022-11-03T12:32:49.920Z,52.33
2022-11-03T12:35:19.724Z,52.33
2022-11-03T12:37:49.179Z,51.31
2022-11-03T12:40:16.579Z,51.00
2022-11-03T12:42:46.810Z,51.05
2022-11-03T12:45:17.068Z,51.20
2022-11-03T12:47:46.693Z,50.03
2022-11-03T12:50:17.677Z,50.68
2022-11-03T12:52:44.756Z,51.04
2022-11-03T12:55:12.989Z,52.68
2022-11-03T12:57:40.982Z,51.75
2022-11-03T13:00:10.533Z,52.94
2022-11-03T13:02:46.096Z,51.09
2022-11-03T13:05:17.090Z,50.32
2022-11-03T13:07:46.463Z,51.21
2022-11-03T13:10:16.906Z,51.62
2022-11-03T13:12:47.111Z,51.92
2022-11-03T13:15:16.636Z,52.66
2022-11-03T13:18:11.769Z,52.52
2022-11-03T13:20:39.330Z,52.31
2022-11-03T13:23:09.797Z,52.74
2022-11-03T13:25:40.240Z,51.68
2022-11-03T13:28:16.245Z,49.25
2022-11-03T13:30:46.255Z,48.24
2022-11-03T13:33:19.589Z,47.88
2022-11-03T13:35:57.751Z,47.17
2022-11-03T13:38:29.697Z,46.48
2022-11-03T13:41:13.952Z,46.28
2022-11-03T13:43:46.649Z,45.97
2022-11-03T13:49:51.095Z,46.04
2022-11-03T13:51:49.633Z,46.08
2022-11-03T13:59:58.973Z,45.26
2022-11-03T14:06:04.125Z,44.46
2022-11-03T14:08:38.911Z,44.59
2022-11-03T14:11:26.044Z,44.80
2022-11-03T14:13:59.489Z,44.41
2022-11-03T14:16:26.772Z,45.22
2022-11-03T14:18:53.947Z,45.00
2022-11-03T14:21:21.196Z,45.00
2022-11-03T14:23:48.262Z,45.07
2022-11-03T14:26:24.158Z,45.16
2022-11-03T14:29:03.321Z,44.56
2022-11-03T14:31:30.669Z,44.77
2022-11-03T14:33:57.933Z,44.41
2022-11-03T14:36:28.418Z,44.24
2022-11-03T14:38:55.875Z,44.74
2022-11-03T14:41:41.688Z,44.63
2022-11-03T14:44:14.061Z,44.84
2022-11-03T14:46:41.345Z,44.25
2022-11-03T14:49:09.414Z,44.71
2022-11-03T14:51:36.815Z,44.25
2022-11-03T14:54:08.136Z,44.10
2022-11-03T14:56:37.909Z,44.09
2022-11-03T14:59:11.016Z,44.44
2022-11-03T15:01:44.202Z,43.50
2022-11-03T15:04:14.126Z,43.94
2022-11-03T15:06:42.029Z,43.55
2022-11-03T15:11:38.541Z,42.71
2022-11-03T15:14:07.210Z,42.66
2022-11-03T15:16:39.815Z,42.27
2022-11-03T15:19:08.057Z,42.21
2022-11-03T15:21:35.397Z,41.89
2022-11-03T15:26:50.980Z,41.25
2022-11-03T15:29:18.010Z,40.83
2022-11-03T15:31:48.139Z,41.17
2022-11-03T15:34:16.877Z,41.70
2022-11-03T15:36:44.066Z,42.09
2022-11-03T15:39:16.654Z,42.34
2022-11-03T15:41:46.978Z,41.96
2022-11-03T15:44:15.013Z,42.12
2022-11-03T15:46:42.646Z,42.65
2022-11-03T15:49:12.366Z,42.00
2022-11-03T15:51:42.072Z,42.00
2022-11-03T15:54:15.749Z,41.80
2022-11-03T15:56:50.805Z,42.30
2022-11-03T15:59:21.592Z,42.60
2022-11-03T16:01:59.488Z,42.40
2022-11-03T16:04:41.959Z,41.79
2022-11-03T16:07:12.251Z,41.92
2022-11-03T16:09:44.927Z,42.06
2022-11-03T16:12:16.283Z,41.82
2022-11-03T16:14:54.399Z,41.44
2022-11-03T16:17:28.938Z,41.50
2022-11-03T16:19:57.771Z,41.68
2022-11-03T16:22:39.031Z,40.94
2022-11-03T16:25:12.098Z,41.49
2022-11-03T16:27:45.521Z,41.53
2022-11-03T16:30:16.846Z,41.22
2022-11-03T16:32:53.165Z,41.37
2022-11-03T16:35:21.448Z,41.28
2022-11-03T16:37:48.848Z,42.07
2022-11-03T16:40:19.928Z,40.72
2022-11-03T16:42:48.191Z,40.37
2022-11-03T16:45:19.379Z,40.80
2022-11-03T16:47:48.004Z,41.61
2022-11-03T16:50:21.524Z,40.78
2022-11-03T16:52:51.139Z,41.67
2022-11-03T16:55:19.522Z,41.10
2022-11-03T16:57:49.976Z,40.65
2022-11-03T17:00:19.691Z,40.46
2022-11-03T17:02:48.954Z,40.82
2022-11-03T17:05:19.001Z,40.89
2022-11-03T17:07:52.932Z,40.47
2022-11-03T17:10:21.568Z,40.16
2022-11-03T17:12:51.504Z,40.27
2022-11-03T17:15:18.897Z,40.32
2022-11-03T17:17:49.843Z,40.38
2022-11-03T17:20:17.962Z,40.67
2022-11-03T17:22:51.673Z,40.51
2022-11-03T17:25:19.182Z,40.50
2022-11-03T17:27:59.361Z,40.39
2022-11-03T17:30:29.285Z,40.74
2022-11-03T17:33:00.913Z,40.38
2022-11-03T17:35:43.004Z,40.66
2022-11-03T17:38:19.783Z,40.68
2022-11-03T17:40:48.280Z,40.64
2022-11-03T17:43:24.215Z,40.58
2022-11-03T17:45:51.630Z,41.23
2022-11-03T17:48:18.652Z,41.02
2022-11-03T17:50:49.733Z,41.79
2022-11-03T17:53:24.547Z,41.49
2022-11-03T17:56:23.414Z,41.70
2022-11-03T17:58:46.242Z,41.13
2022-11-03T18:01:21.962Z,41.13
2022-11-03T18:03:49.277Z,40.96
2022-11-03T18:06:19.625Z,42.10
2022-11-03T18:08:50.648Z,41.53
2022-11-03T18:11:47.490Z,42.60
2022-11-03T18:14:22.851Z,42.24
2022-11-03T18:16:54.098Z,41.89
2022-11-03T18:19:31.510Z,41.77
2022-11-03T18:21:59.425Z,41.75
2022-11-03T18:24:30.178Z,41.76
2022-11-03T18:26:57.905Z,42.23
2022-11-03T18:29:25.575Z,41.79
2022-11-03T18:31:55.269Z,42.37
2022-11-03T18:34:26.804Z,41.52
2022-11-03T18:36:55.712Z,41.85
2022-11-03T18:39:28.604Z,41.60
2022-11-03T18:41:56.443Z,41.75
2022-11-03T18:44:31.569Z,41.54
2022-11-03T18:47:13.535Z,41.68
2022-11-03T18:49:55.174Z,42.18
2022-11-03T18:52:26.732Z,42.53
2022-11-03T18:54:59.299Z,42.28
2022-11-03T18:57:28.274Z,42.35
2022-11-03T19:00:01.168Z,42.30
2022-11-03T19:02:29.211Z,42.90
2022-11-03T19:04:58.216Z,43.34
2022-11-03T19:07:49.356Z,43.39
2022-11-03T19:10:34.843Z,44.01
2022-11-03T19:13:03.655Z,43.44
2022-11-03T19:15:35.672Z,43.35
2022-11-03T19:18:06.147Z,45.26
2022-11-03T19:20:34.234Z,43.44
2022-11-03T19:23:05.213Z,43.57
2022-11-03T19:25:38.873Z,43.45
2022-11-03T19:28:06.657Z,43.65
2022-11-03T19:30:36.306Z,44.01
2022-11-03T19:33:12.465Z,43.85
2022-11-03T19:35:40.996Z,44.38
2022-11-03T19:38:18.786Z,44.63
2022-11-03T19:41:07.194Z,44.22
2022-11-03T19:43:36.914Z,44.87
2022-11-03T19:46:05.579Z,44.77
2022-11-03T19:48:36.768Z,45.45
2022-11-03T19:51:08.981Z,44.56
2022-11-03T19:53:37.742Z,45.17
2022-11-03T19:56:06.003Z,44.96
2022-11-03T19:58:36.500Z,45.05
2022-11-03T20:01:08.636Z,44.59
2022-11-03T20:03:37.130Z,44.19
2022-11-03T20:06:06.483Z,44.25
2022-11-03T20:08:34.678Z,44.81
2022-11-03T20:11:02.311Z,44.50
2022-11-03T20:13:41.441Z,44.01
2022-11-03T20:16:19.503Z,44.05
2022-11-03T20:18:49.217Z,43.70
2022-11-03T20:21:18.419Z,44.21
2022-11-03T20:23:48.785Z,43.98
2022-11-03T20:26:25.394Z,44.37
2022-11-03T20:28:56.899Z,44.56
2022-11-03T20:31:24.875Z,44.79
2022-11-03T20:33:55.539Z,44.54
2022-11-03T20:36:23.139Z,44.86
2022-11-03T20:38:59.328Z,44.86
2022-11-03T20:41:30.602Z,45.02
2022-11-03T20:43:59.436Z,44.55
2022-11-03T20:46:34.981Z,44.56
2022-11-03T20:49:10.223Z,45.07
2022-11-03T20:51:45.540Z,45.20
2022-11-03T20:54:21.209Z,45.12
2022-11-03T20:56:48.666Z,45.18
2022-11-03T20:59:18.245Z,45.19
2022-11-03T21:01:49.509Z,44.80
2022-11-03T21:04:19.984Z,44.89
2022-11-03T21:06:47.938Z,44.90
2022-11-03T21:09:21.398Z,44.80
2022-11-03T21:11:48.805Z,45.15
2022-11-03T21:14:26.272Z,45.98
2022-11-03T21:17:14.952Z,45.50
2022-11-03T21:20:02.367Z,45.27
2022-11-03T21:22:55.662Z,45.32
2022-11-03T21:25:25.350Z,45.65
2022-11-03T21:27:56.498Z,45.30
2022-11-03T21:30:23.942Z,45.63
2022-11-03T21:33:14.167Z,45.21
2022-11-03T21:35:47.773Z,45.14
2022-11-03T21:41:52.061Z,45.80
2022-11-03T21:44:33.614Z,45.37
2022-11-03T21:47:02.738Z,45.54
2022-11-03T21:49:44.796Z,45.75
2022-11-03T21:52:32.276Z,46.05
2022-11-03T21:55:03.335Z,45.88
2022-11-03T21:57:31.490Z,45.72
2022-11-03T21:59:59.252Z,46.05
2022-11-03T22:02:30.306Z,46.43
2022-11-03T22:04:58.639Z,46.67
2022-11-03T22:07:25.846Z,47.45
2022-11-03T22:09:53.094Z,47.37
2022-11-03T22:12:20.787Z,47.04
2022-11-03T22:15:09.240Z,47.12
2022-11-03T22:17:36.803Z,46.65
2022-11-03T22:20:23.065Z,46.51
2022-11-03T22:23:08.821Z,46.68
2022-11-03T22:25:54.538Z,46.27
2022-11-03T22:28:26.044Z,46.34
2022-11-03T22:31:16.059Z,46.32
2022-11-03T22:34:05.213Z,46.34
2022-11-03T22:36:33.950Z,45.99
2022-11-03T22:39:19.909Z,46.33
2022-11-03T22:42:06.963Z,46.33
2022-11-03T22:44:54.833Z,46.40
2022-11-03T22:47:24.131Z,46.52
2022-11-03T22:49:51.702Z,45.70
2022-11-03T22:52:20.119Z,45.97
2022-11-03T22:54:47.320Z,45.79
2022-11-03T22:57:14.671Z,47.09
2022-11-03T22:59:41.927Z,46.18
2022-11-03T23:02:11.597Z,46.17
2022-11-03T23:04:41.189Z,46.10
2022-11-03T23:07:08.535Z,46.25
2022-11-03T23:09:35.830Z,46.06
2022-11-03T23:12:03.787Z,46.63
2022-11-03T23:14:50.857Z,46.15
2022-11-03T23:17:18.177Z,46.46
2022-11-03T23:20:04.674Z,46.13
2022-11-03T23:22:32.568Z,45.95
2022-11-03T23:25:01.199Z,46.34
2022-11-03T23:27:30.516Z,45.53
2022-11-03T23:30:00.855Z,45.46
2022-11-03T23:32:29.382Z,45.42
2022-11-03T23:34:56.509Z,45.30
2022-11-03T23:37:23.662Z,46.42
2022-11-03T23:39:50.782Z,45.34
2022-11-03T23:42:18.500Z,45.20
2022-11-03T23:45:04.794Z,45.05
2022-11-03T23:47:53.530Z,44.46
2022-11-03T23:50:21.077Z,44.53
2022-11-03T23:52:48.274Z,44.52
2022-11-03T23:55:15.436Z,44.82
2022-11-03T23:58:01.339Z,44.51
